Time;durP1;ratioP1;P1;durP2;ratioP2;P2;SDS_P1;SDS_P2;PMS_P1;PMS_P2;Temp;Humidity;BMP_temperature;BMP_pressure;BME280_temperature;BME280_humidity;BME280_pressure;Samples;Min_cycle;Max_cycle;Signal;HPM_P1;HPM_P2
2022/08/02 00:01:09;;;;;;;6.30;3.90;;;;;;;16.89;77.02;97447.31;10250156;28;19960;-56
2022/08/02 00:06:08;;;;;;;;;;;;;;;16.83;77.45;97453.59;10250459;28;20026;-56
2022/08/02 00:11:07;;;;;;;5.73;3.70;;;;;;;16.71;77.65;97446.06;10249535;28;20010;-56
2022/08/02 00:16:05;;;;;;;;;;;;;;;16.59;78.05;97449.06;10250123;28;20110;-56
2022/08/02 00:21:04;;;;;;;6.85;3.70;;;;;;;16.54;77.88;97443.97;10250297;28;19996;-56
2022/08/02 00:26:03;;;;;;;;;;;;;;;16.43;78.34;97446.91;10249754;28;20534;-56
2022/08/02 00:31:02;;;;;;;6.73;4.50;;;;;;;16.34;78.74;97454.16;10249603;28;19910;-56
2022/08/02 00:36:02;;;;;;;;;;;;;;;16.22;79.21;97460.63;10226749;28;20071;-58
2022/08/02 00:41:01;;;;;;;;;;;;;;;16.14;79.35;97459.94;10227740;28;19992;-55
2022/08/02 00:46:00;;;;;;;8.15;4.50;;;;;;;16.11;79.15;97455.66;10249303;28;19914;-57
2022/08/02 00:50:59;;;;;;;;;;;;;;;16.08;79.48;97455.75;10249270;28;20443;-55
2022/08/02 00:55:58;;;;;;;7.75;4.70;;;;;;;16.03;79.74;97457.66;10252637;28;19972;-55
2022/08/02 01:00:59;;;;;;;4.60;3.80;;;;;;;15.91;79.96;97447.53;10255978;28;20069;-55
2022/08/02 01:05:58;;;;;;;4.72;3.70;;;;;;;15.93;80.39;97457.06;10255357;28;20556;-58
2022/08/02 01:10:57;;;;;;;;;;;;;;;15.91;80.69;97458.84;10256354;28;20570;-57
2022/08/02 01:16:13;;;;;;;6.97;4.28;;;;;;;15.84;80.93;97441.59;10255600;28;19926;-56
2022/08/02 01:21:12;;;;;;;4.78;3.97;;;;;;;15.86;81.28;97455.50;10255441;28;20070;-58
2022/08/02 01:26:29;;;;;;;;;;;;;;;15.79;81.58;97446.09;10255495;28;20026;-57
2022/08/02 01:31:33;;;;;;;7.88;4.38;;;;;;;15.70;82.31;97452.41;10254918;28;19960;-57
2022/08/02 01:36:39;;;;;;;13.27;4.68;;;;;;;15.57;83.05;97458.84;10254563;28;20082;-57
2022/08/02 01:41:40;;;;;;;5.28;4.00;;;;;;;15.51;82.87;97449.41;10254460;28;20065;-57
2022/08/02 01:46:41;;;;;;;7.07;4.75;;;;;;;15.37;83.90;97459.38;10254463;28;20070;-57
2022/08/02 01:57:02;;;;;;;6.47;5.07;;;;;;;15.31;83.42;97449.91;10254542;28;20476;-57
2022/08/02 02:02:04;;;;;;;7.20;4.88;;;;;;;15.25;83.46;97435.22;10253740;28;20511;-57
2022/08/02 02:07:05;;;;;;;9.60;6.30;;;;;;;15.29;84.06;97448.22;10253470;28;20112;-56
2022/08/02 02:12:06;;;;;;;8.77;4.93;;;;;;;15.26;83.97;97436.09;10253971;28;20088;-56
2022/08/02 02:17:06;;;;;;;5.95;4.40;;;;;;;15.15;84.92;97446.78;10253260;28;20069;-56
2022/08/02 02:22:05;;;;;;;7.65;4.70;;;;;;;15.08;85.09;97454.81;10253232;28;20089;-56
2022/08/02 02:27:06;;;;;;;;;;;;;;;14.95;85.81;97454.28;10253423;28;20112;-56
2022/08/02 02:32:05;;;;;;;8.57;5.57;;;;;;;14.90;85.93;97461.38;10252618;28;19948;-56
2022/08/02 02:37:11;;;;;;;9.00;5.15;;;;;;;14.80;86.22;97463.28;10252283;28;20085;-56
2022/08/02 02:42:14;;;;;;;10.05;6.07;;;;;;;14.75;86.13;97454.72;10252862;28;20082;-57
2022/08/02 02:47:15;;;;;;;7.57;5.70;;;;;;;14.68;85.89;97466.16;10252567;28;20100;-57
2022/08/02 02:52:15;;;;;;;12.95;7.03;;;;;;;14.54;86.30;97450.78;10250769;28;20073;-57
2022/08/02 02:57:15;;;;;;;10.13;6.30;;;;;;;14.52;86.70;97466.50;10252087;28;20074;-56
2022/08/02 03:02:15;;;;;;;7.88;6.03;;;;;;;14.50;86.67;97467.41;10251157;28;20076;-57
2022/08/02 03:07:14;;;;;;;14.18;6.20;;;;;;;14.47;86.74;97472.69;10251589;28;20070;-56
2022/08/02 03:12:13;;;;;;;10.90;6.35;;;;;;;14.44;86.72;97473.63;10251167;28;20034;-56
2022/08/02 03:17:12;;;;;;;8.38;5.35;;;;;;;14.41;86.87;97469.34;10250910;28;20081;-56
2022/08/02 03:22:11;;;;;;;10.75;5.60;;;;;;;14.33;87.42;97470.38;10251030;28;20030;-57
2022/08/02 03:27:10;;;;;;;7.18;4.78;;;;;;;14.32;87.66;97479.97;10250702;28;20137;-56
2022/08/02 03:32:09;;;;;;;9.15;4.93;;;;;;;14.35;87.44;97484.25;10250936;28;20030;-56
2022/08/02 03:37:08;;;;;;;;;;;;;;;14.35;87.37;97484.25;10250798;28;20085;-56
2022/08/02 03:42:08;;;;;;;;;;;;;;;14.35;87.36;97495.56;10250557;28;20303;-56
2022/08/02 03:47:08;;;;;;;8.27;5.18;;;;;;;14.40;87.59;97487.63;10250122;28;20611;-56
2022/08/02 03:52:07;;;;;;;8.63;5.03;;;;;;;14.43;87.13;97484.97;10249753;28;20488;-56
2022/08/02 03:57:06;;;;;;;8.20;4.53;;;;;;;14.52;87.25;97483.91;10250240;28;20070;-56
2022/08/02 04:02:05;;;;;;;6.63;5.57;;;;;;;14.63;87.59;97497.59;10249931;28;20115;-56
2022/08/02 04:07:04;;;;;;;;;;;;;;;14.69;87.91;97496.63;10248745;28;20149;-56
2022/08/02 04:12:04;;;;;;;7.90;4.53;;;;;;;14.77;87.51;97492.09;10246712;28;19957;-56
2022/08/02 04:17:11;;;;;;;7.68;5.22;;;;;;;14.76;88.03;97499.09;10247727;28;20077;-56
2022/08/02 04:22:17;;;;;;;10.20;5.20;;;;;;;14.76;88.38;97504.31;10247137;28;20500;-56
2022/08/02 04:27:19;;;;;;;8.95;4.85;;;;;;;14.69;88.72;97513.16;10247457;28;20461;-56
2022/08/02 04:32:20;;;;;;;12.55;6.70;;;;;;;14.73;88.46;97501.78;10250365;28;20073;-56
2022/08/02 04:37:19;;;;;;;9.50;5.25;;;;;;;14.75;88.43;97493.88;10255729;28;20089;-56
2022/08/02 04:42:21;;;;;;;;;;;;;;;14.89;88.03;97506.66;10256799;28;20088;-56
2022/08/02 04:47:20;;;;;;;12.70;6.45;;;;;;;14.95;87.92;97503.91;10255809;28;19953;-56
2022/08/02 04:52:19;;;;;;;8.63;5.97;;;;;;;14.97;87.88;97513.44;10256412;28;20073;-56
2022/08/02 05:02:38;;;;;;;9.82;6.22;;;;;;;15.26;87.02;97517.13;10249895;28;20385;-56
2022/08/02 05:07:37;;;;;;;7.80;5.88;;;;;;;15.37;86.80;97511.66;10244390;28;20654;-57
2022/08/02 05:12:37;;;;;;;;;;;;;;;15.59;86.58;97515.44;10243643;28;20081;-56
2022/08/02 05:17:36;;;;;;;7.87;4.83;;;;;;;15.77;85.47;97521.13;10238755;28;20387;-56
2022/08/02 05:22:34;;;;;;;;;;;;;;;15.98;84.20;97523.22;10231038;28;20477;-57
2022/08/02 05:27:33;;;;;;;6.53;5.07;;;;;;;16.13;84.19;97518.47;10249624;28;20115;-56
2022/08/02 05:32:33;;;;;;;6.50;4.20;;;;;;;16.45;83.68;97515.81;10230046;28;20502;-57
2022/08/02 05:37:32;;;;;;;5.28;4.20;;;;;;;16.79;81.49;97527.91;10233904;28;20511;-56
2022/08/02 05:42:31;;;;;;;;;;;;;;;16.93;80.33;97527.53;10236793;28;20893;-57
2022/08/02 05:47:30;;;;;;;5.80;4.10;;;;;;;17.21;80.13;97524.94;10219913;28;20422;-56
2022/08/02 05:52:40;;;;;;;;;;;;;;;17.44;77.89;97525.97;10235851;28;20045;-56
2022/08/02 05:58:09;;;;;;;6.10;4.00;;;;;;;17.54;77.31;97516.88;10221637;28;20740;-57
2022/08/02 06:03:18;;;;;;;4.50;3.57;;;;;;;17.81;76.19;97535.31;10212236;28;20078;-56
2022/08/02 06:08:20;;;;;;;5.95;3.65;;;;;;;18.01;74.91;97538.13;10239326;28;20078;-57
2022/08/02 06:13:19;;;;;;;5.10;3.40;;;;;;;18.28;73.74;97541.53;10253222;28;20081;-57
2022/08/02 06:18:18;;;;;;;4.32;2.90;;;;;;;18.50;72.49;97551.25;10265258;28;20074;-57
2022/08/02 06:23:20;;;;;;;6.22;3.00;;;;;;;18.58;72.26;97549.22;10252882;28;20084;-57
2022/08/02 06:28:19;;;;;;;7.13;3.10;;;;;;;18.85;71.77;97547.38;10252114;28;20488;-56
2022/08/02 06:33:18;;;;;;;3.60;2.97;;;;;;;19.03;70.05;97551.94;10250575;28;20076;-57
2022/08/02 06:38:22;;;;;;;4.75;2.85;;;;;;;19.37;68.70;97553.28;10233183;28;20077;-56
2022/08/02 06:43:24;;;;;;;4.03;3.00;;;;;;;19.66;67.04;97560.00;10251928;28;20088;-57
2022/08/02 06:48:23;;;;;;;2.83;2.60;;;;;;;19.93;66.48;97558.94;10251483;28;20092;-57
2022/08/02 06:53:22;;;;;;;3.28;2.60;;;;;;;20.14;64.40;97555.41;10238675;28;20453;-57
2022/08/02 06:58:21;;;;;;;4.72;2.67;;;;;;;20.46;62.99;97550.53;10249967;28;20466;-57
2022/08/02 07:03:20;;;;;;;6.80;2.78;;;;;;;20.71;62.23;97545.88;10248136;28;20073;-57
2022/08/02 07:08:19;;;;;;;6.38;2.90;;;;;;;21.07;61.64;97550.38;10247944;28;20085;-57
2022/08/02 07:13:18;;;;;;;2.58;2.38;;;;;;;21.27;58.41;97552.13;10249428;28;20488;-59
2022/08/02 07:18:17;;;;;;;2.20;2.00;;;;;;;21.51;56.62;97554.53;10248523;28;20547;-58
2022/08/02 07:23:17;;;;;;;3.00;2.13;;;;;;;21.80;52.97;97553.09;10261841;28;20523;-57
2022/08/02 07:28:16;;;;;;;1.80;1.70;;;;;;;22.18;53.26;97553.00;10250141;28;20527;-57
2022/08/02 07:33:15;;;;;;;4.93;2.08;;;;;;;22.37;50.25;97555.56;10249262;28;20105;-57
2022/08/02 07:38:14;;;;;;;1.70;1.60;;;;;;;22.49;48.81;97551.41;10231905;28;20492;-57
2022/08/02 07:43:13;;;;;;;3.03;1.80;;;;;;;22.72;48.59;97545.75;10249324;28;20036;-57
2022/08/02 07:48:12;;;;;;;3.17;1.80;;;;;;;22.90;48.84;97549.22;10249837;28;20454;-57
2022/08/02 07:53:11;;;;;;;2.72;1.80;;;;;;;23.14;47.71;97541.75;10249767;28;20070;-56
2022/08/02 07:58:11;;;;;;;3.80;1.80;;;;;;;23.22;47.94;97541.31;10249790;28;20037;-56
2022/08/02 08:03:10;;;;;;;2.13;1.63;;;;;;;23.20;47.31;97557.28;10250389;28;20491;-56
2022/08/02 08:08:09;;;;;;;3.30;2.15;;;;;;;23.47;47.02;97547.91;10238724;28;20085;-57
2022/08/02 08:13:08;;;;;;;8.32;2.20;;;;;;;23.61;46.88;97555.94;10248219;28;20066;-56
2022/08/02 08:18:07;;;;;;;2.40;1.70;;;;;;;23.79;46.29;97546.91;10245077;28;20084;-56
2022/08/02 08:23:06;;;;;;;1.92;1.42;;;;;;;23.93;46.42;97546.13;10240328;28;20047;-56
2022/08/02 08:28:05;;;;;;;2.92;1.83;;;;;;;24.03;44.89;97535.84;10251118;28;20039;-56
2022/08/02 08:33:04;;;;;;;2.28;1.92;;;;;;;24.22;44.76;97548.91;10257169;28;20626;-56
2022/08/02 08:38:03;;;;;;;1.63;1.52;;;;;;;24.37;44.42;97533.84;10217576;28;20174;-56
2022/08/02 08:43:03;;;;;;;2.33;1.60;;;;;;;24.29;44.09;97526.38;10251225;28;20077;-56
2022/08/02 08:48:16;;;;;;;1.17;1.08;;;;;;;24.24;42.85;97533.75;10256291;28;20066;-57
2022/08/02 08:53:16;;;;;;;2.53;1.48;;;;;;;24.55;44.02;97531.91;10255939;28;20057;-57
2022/08/02 08:58:16;;;;;;;1.98;1.30;;;;;;;24.65;42.49;97533.03;10255704;28;20087;-57
2022/08/02 09:03:15;;;;;;;1.35;1.27;;;;;;;24.96;41.43;97520.53;10255872;28;20073;-57
2022/08/02 09:08:14;;;;;;;2.97;1.20;;;;;;;25.02;42.42;97525.47;10256331;28;20089;-57
2022/08/02 09:13:28;;;;;;;2.50;1.50;;;;;;;25.04;42.08;97524.41;10255142;28;20592;-57
2022/08/02 09:18:36;;;;;;;1.73;1.20;;;;;;;25.31;41.34;97511.16;10252886;28;20073;-57
2022/08/02 09:23:35;;;;;;;1.57;1.47;;;;;;;25.60;40.52;97510.22;10255472;28;20072;-57
2022/08/02 09:28:37;;;;;;;1.23;1.13;;;;;;;25.67;39.06;97515.06;10254949;28;20030;-57
2022/08/02 09:33:38;;;;;;;1.40;1.30;;;;;;;26.20;39.57;97498.28;10255260;28;20156;-57
2022/08/02 09:38:38;;;;;;;2.28;1.35;;;;;;;26.58;38.47;97512.44;10254281;28;20100;-57
2022/08/02 09:43:40;;;;;;;2.30;1.40;;;;;;;26.71;38.53;97503.59;10236057;28;20560;-60
2022/08/02 09:48:56;;;;;;;1.65;1.55;;;;;;;26.61;38.98;97505.22;10223840;28;20473;-57
2022/08/02 09:54:00;;;;;;;3.53;1.42;;;;;;;26.75;39.10;97510.41;10254734;28;20073;-57
2022/08/02 09:59:05;;;;;;;1.27;1.23;;;;;;;26.54;38.13;97497.63;10254174;28;20527;-57
2022/08/02 10:04:09;;;;;;;1.88;1.40;;;;;;;26.48;38.67;97498.06;10253982;28;20073;-57
2022/08/02 10:09:09;;;;;;;3.67;1.60;;;;;;;26.61;38.43;97495.41;10253042;28;20081;-57
2022/08/02 10:14:09;;;;;;;2.63;1.80;;;;;;;26.63;36.93;97498.81;10253033;28;20074;-57
2022/08/02 10:19:09;;;;;;;1.98;1.35;;;;;;;26.63;36.56;97497.94;10242682;28;20109;-56
2022/08/02 10:24:14;;;;;;;1.73;1.40;;;;;;;26.90;36.20;97498.69;10252519;28;20077;-57
2022/08/02 10:29:18;;;;;;;1.40;1.30;;;;;;;27.28;36.26;97487.06;10253203;28;20475;-56
2022/08/02 10:34:20;;;;;;;1.77;1.65;;;;;;;27.89;36.42;97472.81;10252121;28;20289;-57
2022/08/02 10:39:19;;;;;;;2.53;1.70;;;;;;;28.62;34.97;97475.16;10252292;28;20062;-56
2022/08/02 10:44:32;;;;;;;2.33;1.48;;;;;;;28.94;34.14;97474.44;10253607;28;20062;-57
2022/08/02 10:49:46;;;;;;;1.60;1.42;;;;;;;28.59;34.03;97470.03;10291947;28;20069;-57
2022/08/02 10:54:55;;;;;;;1.83;1.70;;;;;;;27.74;35.03;97478.34;10292038;28;20530;-56
2022/08/02 11:00:13;;;;;;;1.48;1.40;;;;;;;27.54;36.27;97476.31;10291204;28;20084;-56
2022/08/02 11:05:17;;;;;;;1.75;1.52;;;;;;;26.99;36.85;97471.38;10275837;28;20071;-56
2022/08/02 11:10:29;;;;;;;1.98;1.77;;;;;;;26.94;37.75;97476.22;10251025;28;20077;-56
2022/08/02 11:15:28;;;;;;;2.15;1.90;;;;;;;27.28;36.72;97468.41;10232572;28;20105;-57
2022/08/02 11:20:27;;;;;;;1.67;1.50;;;;;;;27.22;34.63;97468.88;10250559;28;20179;-57
2022/08/02 11:25:26;;;;;;;1.77;1.67;;;;;;;27.51;36.22;97455.25;10251248;28;20554;-57
2022/08/02 11:30:26;;;;;;;2.15;1.95;;;;;;;28.04;34.92;97461.00;10252281;28;20495;-57
2022/08/02 11:35:33;;;;;;;2.75;1.55;;;;;;;28.48;33.93;97450.50;10249679;28;20085;-57
2022/08/02 11:40:37;;;;;;;2.40;1.67;;;;;;;28.27;32.70;97455.72;10249776;28;20073;-59
2022/08/02 11:45:36;;;;;;;2.22;1.65;;;;;;;28.20;33.24;97463.38;10251323;28;20077;-56
2022/08/02 11:50:35;;;;;;;3.15;1.90;;;;;;;28.51;33.54;97456.47;10250117;28;20096;-59
2022/08/02 11:55:34;;;;;;;4.07;1.95;;;;;;;28.96;33.03;97445.78;10249740;28;20369;-57
2022/08/02 12:00:34;;;;;;;2.10;1.90;;;;;;;28.87;32.96;97450.03;10249403;28;20053;-57
2022/08/02 12:05:33;;;;;;;3.10;1.70;;;;;;;28.82;31.70;97452.22;10249162;28;20069;-58
2022/08/02 12:10:32;;;;;;;2.20;2.00;;;;;;;28.74;32.37;97446.66;10249435;28;20488;-57
2022/08/02 12:15:40;;;;;;;2.75;1.50;;;;;;;28.46;34.20;97447.97;10249584;28;20411;-57
2022/08/02 12:20:39;;;;;;;2.72;1.50;;;;;;;28.42;33.54;97451.84;10248970;28;20082;-58
2022/08/02 12:25:39;;;;;;;1.30;1.30;;;;;;;28.63;33.32;97447.47;10249260;28;20070;-58
2022/08/02 12:30:52;;;;;;;3.60;1.50;;;;;;;28.76;32.56;97439.38;10249472;28;20074;-58
2022/08/02 12:35:51;;;;;;;1.40;1.30;;;;;;;29.06;32.00;97430.72;10248965;28;20082;-58
2022/08/02 12:40:51;;;;;;;1.65;1.40;;;;;;;29.34;29.84;97427.63;10248365;28;20066;-58
2022/08/02 12:45:52;;;;;;;2.22;1.48;;;;;;;29.61;30.10;97419.13;10249449;28;20093;-58
2022/08/02 12:50:51;;;;;;;1.50;1.40;;;;;;;29.75;29.93;97421.47;10251831;28;20082;-56
2022/08/02 12:55:54;;;;;;;1.52;1.40;;;;;;;29.85;29.76;97427.75;10255870;28;20045;-56
2022/08/02 13:00:57;;;;;;;2.25;1.38;;;;;;;29.55;29.83;97412.44;10255771;28;20530;-56
2022/08/02 13:05:55;;;;;;;1.70;1.60;;;;;;;29.00;31.45;97422.34;10255565;28;20066;-57
2022/08/02 13:10:54;;;;;;;2.63;1.30;;;;;;;28.84;31.50;97423.56;10255089;28;20260;-58
2022/08/02 13:15:53;;;;;;;2.05;1.65;;;;;;;28.66;32.35;97425.91;10256756;28;20050;-58
2022/08/02 13:20:53;;;;;;;2.55;1.90;;;;;;;28.96;32.50;97423.56;10254711;28;20038;-59
2022/08/02 13:25:54;;;;;;;2.88;1.52;;;;;;;29.23;31.11;97412.44;10255955;28;20070;-57
2022/08/02 13:30:53;;;;;;;1.80;1.70;;;;;;;29.62;30.74;97407.44;10255327;28;20077;-58
2022/08/02 13:35:52;;;;;;;1.50;1.42;;;;;;;29.65;31.15;97412.56;10232514;28;20051;-57
2022/08/02 13:41:09;;;;;;;3.33;1.65;;;;;;;29.49;31.11;97421.00;10230963;28;20022;-57
2022/08/02 13:46:08;;;;;;;1.80;1.70;;;;;;;29.09;31.96;97418.94;10255226;28;20073;-57
2022/08/02 13:51:10;;;;;;;1.77;1.67;;;;;;;28.40;32.98;97429.78;10253781;28;20023;-58
2022/08/02 13:56:09;;;;;;;1.88;1.77;;;;;;;28.11;34.21;97424.91;10254515;28;20504;-58
2022/08/02 14:01:08;;;;;;;1.85;1.75;;;;;;;28.01;33.84;97419.41;10253409;28;20507;-58
2022/08/02 14:06:08;;;;;;;2.35;1.70;;;;;;;28.31;33.61;97417.16;10253684;28;20101;-58
2022/08/02 14:11:07;;;;;;;1.95;1.75;;;;;;;28.63;33.03;97402.09;10253247;28;20081;-57
2022/08/02 14:16:06;;;;;;;3.13;1.95;;;;;;;28.74;32.44;97413.78;10253553;28;20487;-57
2022/08/02 14:21:05;;;;;;;2.92;1.80;;;;;;;28.98;31.72;97414.44;10252577;28;20408;-56
2022/08/02 14:26:08;;;;;;;2.03;1.75;;;;;;;29.15;31.23;97412.22;10252495;28;20036;-56
2022/08/02 14:31:07;;;;;;;2.10;1.90;;;;;;;29.32;31.33;97416.19;10248423;28;20070;-57
2022/08/02 14:36:06;;;;;;;1.67;1.58;;;;;;;29.13;31.07;97419.50;10252864;28;20089;-57
2022/08/02 14:41:05;;;;;;;2.20;2.00;;;;;;;29.26;30.62;97413.06;10254552;28;20058;-57
2022/08/02 14:46:04;;;;;;;1.90;1.70;;;;;;;29.62;29.88;97410.13;10254864;28;20396;-57
2022/08/02 14:51:03;;;;;;;1.98;1.88;;;;;;;29.83;30.02;97408.28;10254017;28;20030;-57
2022/08/02 14:56:02;;;;;;;3.53;1.73;;;;;;;29.70;30.74;97413.00;10254909;28;20097;-57
2022/08/02 15:01:01;;;;;;;2.20;1.70;;;;;;;29.63;30.56;97401.13;10253910;28;20465;-57
2022/08/02 15:06:00;;;;;;;2.22;1.40;;;;;;;29.43;30.00;97400.97;10252880;28;20516;-57
2022/08/02 15:10:59;;;;;;;2.42;2.00;;;;;;;29.45;30.18;97399.00;10253721;28;20048;-57
2022/08/02 15:15:58;;;;;;;2.58;1.95;;;;;;;29.17;30.75;97404.94;10251817;28;20089;-57
2022/08/02 15:20:57;;;;;;;2.63;1.90;;;;;;;28.98;31.46;97393.06;10253614;28;20061;-57
2022/08/02 15:25:56;;;;;;;2.45;2.25;;;;;;;29.05;31.74;97407.63;10252951;28;20026;-57
2022/08/02 15:30:56;;;;;;;2.22;1.77;;;;;;;28.91;31.53;97402.56;10252953;28;20054;-57
2022/08/02 15:35:56;;;;;;;2.17;1.98;;;;;;;28.78;31.93;97405.41;10251757;28;20078;-57
2022/08/02 15:40:55;;;;;;;2.67;2.17;;;;;;;28.79;31.95;97416.94;10248110;28;20069;-57
2022/08/02 15:45:54;;;;;;;4.55;2.20;;;;;;;28.77;32.13;97418.88;10249173;28;20063;-56
2022/08/02 15:50:53;;;;;;;3.42;2.08;;;;;;;28.71;32.65;97414.00;10248666;28;20082;-58
2022/08/02 15:55:52;;;;;;;2.25;2.05;;;;;;;28.73;32.54;97415.56;10249196;28;20026;-57
2022/08/02 16:00:51;;;;;;;2.22;2.03;;;;;;;28.53;32.00;97427.84;10248560;28;20512;-57
2022/08/02 16:05:50;;;;;;;2.72;1.65;;;;;;;28.58;31.54;97420.31;10246830;28;20467;-57
2022/08/02 16:10:49;;;;;;;2.05;1.88;;;;;;;28.45;32.12;97427.59;10246506;28;20034;-57
2022/08/02 16:15:48;;;;;;;2.47;2.00;;;;;;;28.53;32.77;97433.19;10246971;28;20031;-59
2022/08/02 16:20:47;;;;;;;3.47;2.00;;;;;;;28.37;32.09;97433.53;10249131;28;20141;-57
2022/08/02 16:25:46;;;;;;;2.15;1.95;;;;;;;28.15;33.32;97450.38;10219279;28;20042;-57
2022/08/02 16:30:46;;;;;;;2.40;2.20;;;;;;;28.19;33.56;97441.16;10270165;28;20105;-56
2022/08/02 16:35:45;;;;;;;2.65;1.95;;;;;;;28.12;33.61;97450.59;10268077;28;20070;-56
2022/08/02 16:40:44;;;;;;;1.88;1.60;;;;;;;28.11;34.09;97448.91;10230489;28;20137;-56
2022/08/02 16:45:43;;;;;;;2.88;2.00;;;;;;;27.93;34.13;97459.13;10255485;28;20026;-56
2022/08/02 16:50:42;;;;;;;3.38;2.35;;;;;;;27.85;34.57;97458.88;10257129;28;20526;-57
2022/08/02 16:55:41;;;;;;;2.25;1.80;;;;;;;27.70;34.57;97460.88;10232616;28;20097;-56
2022/08/02 17:00:40;;;;;;;3.97;2.13;;;;;;;27.54;35.16;97471.00;10214453;28;20326;-56
2022/08/02 17:05:40;;;;;;;4.50;2.03;;;;;;;27.49;35.23;97474.00;10232691;28;20042;-56
2022/08/02 17:10:39;;;;;;;1.85;1.70;;;;;;;27.26;35.90;97475.69;10253551;28;20092;-57
2022/08/02 17:15:39;;;;;;;2.10;1.63;;;;;;;27.19;36.53;97479.78;10251150;28;20026;-57
2022/08/02 17:20:38;;;;;;;2.60;1.88;;;;;;;27.01;37.19;97475.78;10253645;28;20082;-56
2022/08/02 17:25:37;;;;;;;2.60;1.88;;;;;;;26.92;37.88;97480.78;10226163;28;20548;-56
2022/08/02 17:30:36;;;;;;;2.33;2.08;;;;;;;26.79;38.36;97480.78;10221532;28;20532;-57
2022/08/02 17:35:35;;;;;;;3.70;2.53;;;;;;;26.58;38.71;97483.16;10234050;28;20046;-56
2022/08/02 17:40:34;;;;;;;2.42;2.22;;;;;;;26.35;39.29;97483.94;10246588;28;20109;-57
2022/08/02 17:45:33;;;;;;;4.63;2.20;;;;;;;26.09;40.40;97483.00;10246287;28;20026;-58
2022/08/02 17:50:33;;;;;;;4.97;1.95;;;;;;;25.76;40.89;97483.50;10246207;28;20117;-58
2022/08/02 17:55:32;;;;;;;3.58;2.15;;;;;;;25.44;41.68;97489.97;10241834;28;20460;-56
2022/08/02 18:00:34;;;;;;;2.45;2.20;;;;;;;25.18;42.04;97494.31;10241885;28;20078;-56
2022/08/02 18:05:33;;;;;;;6.22;2.60;;;;;;;24.97;42.59;97508.97;10234565;28;20560;-57
2022/08/02 18:10:32;;;;;;;3.55;2.42;;;;;;;24.74;43.11;97518.34;10252164;28;20499;-56
2022/08/02 18:15:31;;;;;;;5.80;2.45;;;;;;;24.52;43.62;97521.44;10251263;28;20511;-55
2022/08/02 18:20:30;;;;;;;5.30;2.47;;;;;;;24.28;44.30;97535.25;10252718;28;20057;-56
2022/08/02 18:25:29;;;;;;;5.65;2.20;;;;;;;24.09;44.46;97539.94;10251674;28;20468;-57
2022/08/02 18:30:29;;;;;;;2.70;2.08;;;;;;;23.88;45.40;97542.88;10250924;28;20106;-57
2022/08/02 18:35:28;;;;;;;3.85;2.42;;;;;;;23.66;45.84;97548.59;10251980;28;20085;-57
2022/08/02 18:40:27;;;;;;;2.55;2.25;;;;;;;23.44;46.31;97547.13;10251764;28;20101;-57
2022/08/02 18:45:27;;;;;;;3.15;2.53;;;;;;;23.21;47.24;97556.34;10250076;28;20144;-56
2022/08/02 18:50:26;;;;;;;4.25;2.80;;;;;;;22.97;47.79;97555.03;10234335;28;20937;-55
2022/08/02 18:55:25;;;;;;;3.67;2.40;;;;;;;22.80;48.25;97559.44;10212015;28;20122;-55
2022/08/02 19:00:24;;;;;;;3.67;2.72;;;;;;;22.66;49.05;97564.59;10211885;28;20082;-56
2022/08/02 19:05:23;;;;;;;4.72;2.67;;;;;;;22.48;49.25;97570.84;10224888;28;20036;-57
2022/08/02 19:10:22;;;;;;;7.03;2.83;;;;;;;22.36;50.15;97574.97;10250535;28;20034;-57
2022/08/02 19:15:21;;;;;;;7.22;2.97;;;;;;;22.19;51.07;97581.13;10238956;28;20110;-57
2022/08/02 19:20:20;;;;;;;5.32;2.95;;;;;;;22.06;51.93;97572.09;10250422;28;20066;-57
2022/08/02 19:25:19;;;;;;;5.25;3.70;;;;;;;21.92;52.59;97581.56;10248965;28;20026;-58
2022/08/02 19:30:19;;;;;;;6.57;3.33;;;;;;;21.82;53.26;97584.72;10209624;28;20066;-57
2022/08/02 19:35:18;;;;;;;5.72;3.40;;;;;;;21.72;53.53;97579.88;10224926;28;20074;-57
2022/08/02 19:40:22;;;;;;;4.93;3.10;;;;;;;21.60;53.58;97579.63;10245804;28;20071;-57
2022/08/02 19:45:23;;;;;;;5.28;3.03;;;;;;;21.51;53.97;97584.41;10236315;28;20615;-57
2022/08/02 19:50:22;;;;;;;7.82;4.00;;;;;;;21.40;54.38;97583.22;10222503;28;20117;-56
2022/08/02 19:55:21;;;;;;;8.07;4.90;;;;;;;21.32;55.47;97586.22;10212316;28;20066;-56
2022/08/02 20:00:20;;;;;;;10.93;5.93;;;;;;;21.26;56.10;97591.78;10227615;28;20110;-56
2022/08/02 20:05:19;;;;;;;10.82;6.13;;;;;;;21.18;56.69;97593.91;10236817;28;20108;-56
2022/08/02 20:10:18;;;;;;;9.75;5.53;;;;;;;21.08;57.42;97596.97;10233363;28;20126;-56
2022/08/02 20:15:17;;;;;;;11.63;6.78;;;;;;;20.96;58.23;97594.03;10245262;28;20539;-57
2022/08/02 20:20:17;;;;;;;9.02;6.15;;;;;;;20.88;58.75;97592.59;10257239;28;20026;-56
2022/08/02 20:25:16;;;;;;;12.15;6.10;;;;;;;20.81;59.42;97591.16;10210235;28;20101;-56
2022/08/02 20:30:15;;;;;;;9.25;4.90;;;;;;;20.64;60.99;97593.69;10207608;28;20031;-56
2022/08/02 20:35:14;;;;;;;7.65;4.80;;;;;;;20.49;61.12;97598.72;10257186;28;20444;-56
2022/08/02 20:40:13;;;;;;;5.60;3.70;;;;;;;20.38;61.88;97602.72;10234429;28;20066;-56
2022/08/02 20:45:12;;;;;;;6.38;4.07;;;;;;;20.17;61.91;97591.31;10238620;28;20022;-56
2022/08/02 20:55:29;;;;;;;3.83;3.33;;;;;;;20.01;63.39;97594.56;10208051;28;20058;-56
2022/08/02 21:00:28;;;;;;;6.20;3.30;;;;;;;19.86;63.96;97600.47;10213536;28;20069;-56
2022/08/02 21:05:28;;;;;;;3.53;3.05;;;;;;;19.76;64.16;97605.25;10224822;28;20077;-56
2022/08/02 21:10:28;;;;;;;5.57;3.55;;;;;;;19.64;64.43;97611.00;10250913;28;20069;-56
2022/08/02 21:15:28;;;;;;;4.43;3.20;;;;;;;19.55;64.55;97606.06;10255217;28;20070;-56
2022/08/02 21:20:27;;;;;;;4.07;3.30;;;;;;;19.43;65.12;97600.38;10254625;28;20077;-56
2022/08/02 21:25:26;;;;;;;7.53;3.60;;;;;;;19.41;65.35;97609.25;10254693;28;20074;-56
2022/08/02 21:30:25;;;;;;;6.18;3.38;;;;;;;19.30;66.65;97627.22;10254243;28;20557;-56
2022/08/02 21:35:24;;;;;;;6.47;4.07;;;;;;;19.22;67.54;97620.47;10256182;28;20690;-56
2022/08/02 21:40:23;;;;;;;3.55;3.25;;;;;;;19.18;67.59;97618.03;10233135;28;20504;-56
2022/08/02 21:45:22;;;;;;;9.52;4.00;;;;;;;19.12;67.32;97613.00;10231231;28;20033;-56
2022/08/02 21:50:21;;;;;;;3.65;3.10;;;;;;;18.95;68.94;97617.13;10229190;28;20518;-56
2022/08/02 21:55:20;;;;;;;4.82;3.25;;;;;;;18.71;69.92;97610.13;10231304;28;20515;-56
2022/08/02 22:00:19;;;;;;;4.75;3.45;;;;;;;18.56;69.98;97612.34;10248472;28;20066;-56
2022/08/02 22:05:18;;;;;;;5.88;3.50;;;;;;;18.45;70.17;97608.38;10249535;28;20097;-56
2022/08/02 22:10:17;;;;;;;5.90;3.50;;;;;;;18.42;70.77;97616.38;10249765;28;20088;-56
2022/08/02 22:15:16;;;;;;;4.45;3.50;;;;;;;18.20;73.04;97630.25;10248484;28;20117;-56
2022/08/02 22:20:15;;;;;;;6.57;3.67;;;;;;;17.95;74.21;97635.47;10249749;28;20085;-56
2022/08/02 22:25:14;;;;;;;3.85;2.90;;;;;;;17.64;74.58;97639.03;10249219;28;20069;-56
2022/08/02 22:30:13;;;;;;;3.40;2.80;;;;;;;17.58;74.41;97638.34;10252948;28;20030;-57
2022/08/02 22:35:12;;;;;;;;;;;;;;;17.55;74.26;97627.03;10252741;28;20119;-57
2022/08/02 22:40:12;;;;;;;5.83;3.90;;;;;;;17.55;74.74;97629.66;10253964;28;19953;-57
2022/08/02 22:45:11;;;;;;;5.38;3.70;;;;;;;17.52;74.95;97624.53;10253231;28;20074;-57
2022/08/02 22:50:10;;;;;;;6.95;3.83;;;;;;;17.51;75.03;97627.19;10251828;28;20137;-57
2022/08/02 22:55:09;;;;;;;4.55;3.67;;;;;;;17.50;75.16;97635.97;10252000;28;20072;-57
2022/08/02 23:00:08;;;;;;;13.57;8.20;;;;;;;17.51;75.44;97628.03;10252023;28;20073;-57
2022/08/02 23:05:08;;;;;;;6.55;4.32;;;;;;;17.40;76.49;97624.03;10251299;28;20066;-57
2022/08/02 23:10:07;;;;;;;4.95;3.90;;;;;;;17.43;76.63;97631.81;10252175;28;20100;-57
2022/08/02 23:15:07;;;;;;;6.78;4.35;;;;;;;17.44;76.70;97629.13;10251304;28;20074;-57
2022/08/02 23:20:08;;;;;;;5.70;3.97;;;;;;;17.47;76.99;97630.81;10250754;28;20064;-57
2022/08/02 23:25:07;;;;;;;5.95;3.90;;;;;;;17.45;77.13;97627.38;10250348;28;20550;-57
2022/08/02 23:30:09;;;;;;;5.93;3.92;;;;;;;17.45;76.91;97622.13;10251823;28;20078;-57
2022/08/02 23:35:08;;;;;;;6.03;4.07;;;;;;;17.28;78.33;97626.09;10249223;28;20069;-57
2022/08/02 23:40:08;;;;;;;6.53;4.20;;;;;;;17.13;79.08;97631.81;10249976;28;20065;-57